Time;durP1;ratioP1;P1;durP2;ratioP2;P2;SDS_P1;SDS_P2;PMS_P1;PMS_P2;Temp;Humidity;BMP_temperature;BMP_pressure;BME280_temperature;BME280_humidity;BME280_pressure;Samples;Min_cycle;Max_cycle;Signal;HPM_P1;HPM_P2
2023/10/09 00:06:07;;;;;;;11.38;4.30;;;;;;;9.97;76.20;98499.94;10445290;28;20459;-73
2023/10/09 00:11:29;;;;;;;6.78;3.63;;;;;;;9.91;77.04;98502.97;10447905;28;20052;-71
2023/10/09 00:17:00;;;;;;;7.60;4.07;;;;;;;9.91;77.71;98502.22;10433096;28;20048;-71
2023/10/09 00:27:46;;;;;;;8.18;3.47;;;;;;;10.01;78.03;98487.06;10452958;28;20041;-75
2023/10/09 00:33:07;;;;;;;8.23;3.20;;;;;;;10.09;78.72;98472.31;10451666;28;20041;-73
2023/10/09 00:38:33;;;;;;;7.40;3.65;;;;;;;10.04;78.64;98460.09;10455360;28;20052;-73
2023/10/09 00:43:59;;;;;;;5.82;3.28;;;;;;;9.97;78.49;98442.13;10446760;28;20045;-72
2023/10/09 00:49:22;;;;;;;8.02;3.03;;;;;;;10.00;79.64;98427.00;10419672;28;20045;-73
2023/10/09 00:54:46;;;;;;;8.45;3.67;;;;;;;10.05;79.21;98405.78;10418747;28;20037;-73
2023/10/09 01:00:24;;;;;;;6.88;3.45;;;;;;;10.04;79.26;98393.88;10432408;28;20495;-73
2023/10/09 01:11:30;;;;;;;7.78;3.80;;;;;;;10.10;78.44;98362.19;10460633;28;20094;-72
2023/10/09 01:16:54;;;;;;;8.57;3.42;;;;;;;10.08;78.20;98343.25;10418562;28;20033;-72
2023/10/09 01:22:16;;;;;;;6.78;3.53;;;;;;;10.04;78.16;98340.88;10431324;28;20116;-71
2023/10/09 01:27:40;;;;;;;5.93;3.70;;;;;;;10.01;78.41;98338.50;10417297;28;20051;-71
2023/10/09 01:33:11;;;;;;;5.50;3.05;;;;;;;10.12;77.45;98343.56;10430798;28;20056;-72
2023/10/09 01:38:40;;;;;;;8.35;3.25;;;;;;;10.12;77.27;98335.19;10417972;28;20044;-73
2023/10/09 01:44:10;;;;;;;6.47;3.45;;;;;;;10.08;77.11;98323.72;10444949;28;20048;-73
2023/10/09 01:49:31;;;;;;;6.50;2.92;;;;;;;10.00;76.81;98292.41;10443734;28;20037;-73
2023/10/09 01:54:53;;;;;;;7.38;3.05;;;;;;;9.98;76.96;98290.19;10430149;28;20041;-73
2023/10/09 02:00:21;;;;;;;5.63;2.70;;;;;;;10.00;77.02;98290.34;10429292;28;20399;-73
2023/10/09 02:05:42;;;;;;;5.82;2.92;;;;;;;10.00;76.65;98265.25;10457947;28;20462;-73
2023/10/09 02:11:03;;;;;;;4.85;2.63;;;;;;;10.00;76.95;98268.03;10429492;28;20091;-73
2023/10/09 02:16:32;;;;;;;6.13;3.00;;;;;;;10.01;76.55;98260.41;10443118;28;20449;-73
2023/10/09 02:21:53;;;;;;;6.40;3.05;;;;;;;10.01;76.55;98255.56;10430253;28;20061;-73
2023/10/09 02:33:06;;;;;;;4.90;2.88;;;;;;;10.08;76.69;98242.84;10445553;28;20048;-73
2023/10/09 02:38:31;;;;;;;5.50;3.00;;;;;;;10.08;76.68;98219.78;10430135;28;20049;-72
2023/10/09 02:43:55;;;;;;;5.30;3.08;;;;;;;10.10;76.60;98208.78;10428172;28;20049;-72
2023/10/09 02:49:16;;;;;;;6.60;2.80;;;;;;;10.16;76.62;98214.84;10456929;28;20041;-73
2023/10/09 02:54:41;;;;;;;5.70;2.60;;;;;;;10.27;76.59;98203.16;10427832;28;20116;-72
2023/10/09 03:00:08;;;;;;;5.47;2.90;;;;;;;10.35;76.60;98186.28;10442644;28;20128;-73
2023/10/09 03:05:29;;;;;;;5.40;2.60;;;;;;;10.42;76.43;98177.78;10442236;28;20064;-73
2023/10/09 03:10:50;;;;;;;4.25;2.22;;;;;;;10.44;75.95;98177.94;10441825;28;20123;-73
2023/10/09 03:16:18;;;;;;;5.53;2.08;;;;;;;10.62;76.21;98166.66;10427718;28;20037;-73
2023/10/09 03:21:42;;;;;;;5.07;2.30;;;;;;;10.64;75.63;98141.69;10441117;28;20102;-73
2023/10/09 03:27:03;;;;;;;4.78;2.75;;;;;;;10.67;75.65;98132.13;10414520;28;20495;-73
2023/10/09 03:32:24;;;;;;;8.30;2.80;;;;;;;10.64;75.45;98117.28;10441069;28;20044;-73
2023/10/09 03:37:45;;;;;;;7.60;2.45;;;;;;;10.59;75.20;98124.63;10440783;28;20041;-72
2023/10/09 03:43:06;;;;;;;3.67;2.55;;;;;;;10.62;75.28;98097.59;10455913;28;20068;-73
2023/10/09 03:48:32;;;;;;;6.13;2.40;;;;;;;10.58;75.16;98081.28;10440802;28;20064;-73
2023/10/09 03:53:53;;;;;;;5.05;2.10;;;;;;;10.53;75.35;98073.22;10446719;28;20045;-73
2023/10/09 03:59:16;;;;;;;5.13;2.38;;;;;;;10.50;75.61;98063.94;10434178;28;20047;-72
2023/10/09 04:04:36;;;;;;;3.95;2.13;;;;;;;10.54;75.48;98053.09;10448270;28;20053;-72
2023/10/09 04:10:23;;;;;;;5.22;2.30;;;;;;;10.49;75.77;98034.56;10433621;28;20041;-72
2023/10/09 04:15:42;;;;;;;3.85;2.40;;;;;;;10.57;75.89;98012.09;10439187;28;20403;-73
2023/10/09 04:21:34;;;;;;;4.15;1.80;;;;;;;10.49;75.76;98012.25;10461894;28;20048;-72
2023/10/09 04:26:58;;;;;;;3.28;1.85;;;;;;;10.47;76.05;97989.03;10428492;28;20045;-73
2023/10/09 04:32:19;;;;;;;3.03;1.50;;;;;;;10.51;76.23;97980.94;10433498;28;20041;-73
2023/10/09 04:37:44;;;;;;;4.65;1.50;;;;;;;10.56;75.84;97977.88;10447327;28;20556;-72
2023/10/09 04:43:20;;;;;;;2.97;1.63;;;;;;;10.58;75.77;97975.22;10446986;28;20136;-73
2023/10/09 04:48:45;;;;;;;3.95;1.50;;;;;;;10.63;76.05;97951.13;10460944;28;20407;-73
2023/10/09 04:54:12;;;;;;;3.45;1.48;;;;;;;10.65;76.30;97962.44;10446929;28;20049;-74
2023/10/09 04:59:45;;;;;;;3.25;1.48;;;;;;;10.79;76.50;97990.59;10433199;28;20040;-73
2023/10/09 05:05:47;;;;;;;2.42;1.50;;;;;;;10.95;76.53;97988.22;10445021;28;20061;-73
2023/10/09 05:27:17;;;;;;;4.60;1.50;;;;;;;11.60;76.09;98001.06;10444522;28;20056;-72
2023/10/09 05:32:48;;;;;;;4.07;1.58;;;;;;;11.72;75.89;97999.81;10446601;28;20462;-72
2023/10/09 05:38:23;;;;;;;3.53;1.88;;;;;;;11.86;75.51;97996.50;10433156;28;20095;-73
2023/10/09 05:45:00;;;;;;;3.47;1.25;;;;;;;11.97;75.37;98002.19;10443963;28;20069;-73
2023/10/09 05:49:46;;;;;;;3.55;1.42;;;;;;;12.06;74.92;97992.25;10458719;28;20422;-72
2023/10/09 06:17:52;;;;;;;3.40;1.92;;;;;;;11.73;74.33;97927.81;10445256;28;20041;-73
2023/10/09 06:23:16;;;;;;;3.08;1.77;;;;;;;11.60;74.22;97923.50;10435721;28;20536;-76
2023/10/09 06:28:49;;;;;;;10.10;3.00;;;;;;;11.56;74.62;97920.41;10439944;28;20103;-72
2023/10/09 06:34:15;;;;;;;4.50;2.80;;;;;;;11.64;75.03;97920.97;10444242;28;20041;-73
2023/10/09 06:45:16;;;;;;;5.35;3.55;;;;;;;11.79;75.23;97941.50;10457407;28;20482;-72
2023/10/09 06:50:58;;;;;;;8.93;3.78;;;;;;;11.75;75.30;97941.94;10456484;28;20494;-73
2023/10/09 07:07:54;;;;;;;7.88;4.50;;;;;;;12.08;76.16;97964.41;10417604;28;19927;-74
2023/10/09 07:13:18;;;;;;;6.32;3.55;;;;;;;12.14;76.40;97944.47;10456353;28;20052;-74
2023/10/09 07:18:49;;;;;;;6.97;4.20;;;;;;;12.22;76.71;97954.13;10441303;28;20041;-73
2023/10/09 07:24:17;;;;;;;6.57;3.92;;;;;;;12.36;76.88;97942.38;10456255;28;20068;-73
2023/10/09 07:29:47;;;;;;;8.23;4.20;;;;;;;12.63;76.80;97942.69;10448557;28;20045;-74
2023/10/09 07:35:24;;;;;;;7.72;4.68;;;;;;;12.88;76.48;97942.88;10436515;28;20494;-73
2023/10/09 07:46:32;;;;;;;7.57;4.43;;;;;;;13.04;76.09;97951.56;10451502;28;20483;-73
2023/10/09 07:51:52;;;;;;;7.15;4.13;;;;;;;13.06;76.15;97962.16;10463234;28;20045;-72
2023/10/09 07:57:16;;;;;;;9.85;4.57;;;;;;;13.16;76.41;97955.09;10434352;28;20527;-73
2023/10/09 08:02:38;;;;;;;6.68;4.13;;;;;;;13.21;76.08;97958.88;10435095;28;20080;-72
2023/10/09 08:14:00;;;;;;;8.88;4.93;;;;;;;13.39;75.52;97956.44;10429690;28;20069;-74
2023/10/09 08:19:34;;;;;;;8.20;4.40;;;;;;;13.55;75.60;97951.06;10433879;28;20439;-73
2023/10/09 08:24:57;;;;;;;6.75;4.32;;;;;;;13.80;75.79;97944.81;10462116;28;20053;-73
2023/10/09 08:35:48;;;;;;;7.60;4.63;;;;;;;14.47;74.73;97954.97;10462093;28;20352;-74
2023/10/09 08:41:17;;;;;;;8.77;4.57;;;;;;;14.57;73.58;97949.94;10434446;28;20116;-73
2023/10/09 08:46:39;;;;;;;9.70;4.47;;;;;;;14.61;73.10;97955.03;10446418;28;20147;-73
2023/10/09 08:52:03;;;;;;;8.65;4.80;;;;;;;14.69;73.16;97966.72;10432445;28;20475;-73
2023/10/09 08:57:24;;;;;;;12.27;4.40;;;;;;;14.88;72.54;97968.47;10446249;28;20069;-73
2023/10/09 09:02:47;;;;;;;8.98;4.93;;;;;;;15.06;71.48;97968.72;10431838;28;20076;-74
2023/10/09 09:08:25;;;;;;;8.25;4.50;;;;;;;15.52;71.12;97961.97;10431791;28;20049;-73
2023/10/09 09:13:58;;;;;;;8.10;4.55;;;;;;;15.71;69.25;97950.31;10459973;28;20052;-73
2023/10/09 09:19:19;;;;;;;8.55;4.70;;;;;;;15.64;68.85;97940.13;10460350;28;20044;-73
2023/10/09 09:24:46;;;;;;;10.32;4.93;;;;;;;15.33;68.83;97929.34;10429876;28;20051;-70
2023/10/09 09:30:23;;;;;;;11.23;5.30;;;;;;;15.15;69.28;97974.16;10437618;28;20045;-71
2023/10/09 09:36:04;;;;;;;10.93;4.82;;;;;;;15.15;69.70;97993.06;10419166;28;20041;-72
2023/10/09 09:41:26;;;;;;;10.88;5.68;;;;;;;15.44;69.81;97973.56;10439389;28;20061;-73
2023/10/09 09:46:46;;;;;;;8.55;5.07;;;;;;;15.87;69.43;97983.47;10416187;28;20120;-72
2023/10/09 09:52:11;;;;;;;11.35;4.97;;;;;;;15.98;69.25;97974.91;10428946;28;20041;-71
2023/10/09 09:57:32;;;;;;;9.90;5.25;;;;;;;16.47;68.72;97973.75;10443366;28;20061;-73
2023/10/09 10:02:56;;;;;;;8.95;4.47;;;;;;;16.42;68.20;97972.09;10426473;28;20120;-72
2023/10/09 10:08:19;;;;;;;9.73;4.43;;;;;;;16.47;68.16;97979.38;10429638;28;20068;-87
2023/10/09 10:13:40;;;;;;;8.60;4.82;;;;;;;16.55;67.70;97968.50;10416428;28;20094;-69
2023/10/09 10:24:54;;;;;;;8.00;4.32;;;;;;;16.76;67.02;97987.84;10444462;28;20037;-76
2023/10/09 10:30:33;;;;;;;9.15;4.03;;;;;;;16.65;66.93;97971.78;10456085;28;20083;-76
2023/10/09 10:35:55;;;;;;;8.27;4.25;;;;;;;16.73;67.07;97960.94;10442109;28;20045;-74
2023/10/09 10:41:17;;;;;;;8.73;4.15;;;;;;;16.96;66.72;97950.69;10428233;28;20445;-75
2023/10/09 10:46:43;;;;;;;6.47;3.88;;;;;;;16.97;66.03;97972.59;10400745;28;20048;-72
2023/10/09 10:58:37;;;;;;;7.00;4.05;;;;;;;16.90;66.72;97978.59;10420331;28;20308;-72
2023/10/09 11:09:24;;;;;;;8.70;3.95;;;;;;;16.75;66.81;97975.13;10441589;28;20052;-72
2023/10/09 11:20:53;;;;;;;6.85;4.05;;;;;;;16.52;67.53;97972.59;10450520;28;20448;-74
2023/10/09 11:26:31;;;;;;;9.60;4.40;;;;;;;16.34;68.22;97949.16;10426307;28;20041;-73
2023/10/09 11:32:09;;;;;;;10.38;4.85;;;;;;;16.19;68.47;97948.47;10439599;28;20045;-70
2023/10/09 11:42:57;;;;;;;8.50;4.25;;;;;;;15.74;70.21;97928.66;10448722;28;20431;-74
2023/10/09 11:48:31;;;;;;;9.32;4.85;;;;;;;15.77;71.18;97918.97;10429525;28;20120;-74
2023/10/09 11:53:58;;;;;;;8.55;5.28;;;;;;;15.99;71.61;97900.34;10429793;28;20037;-74
2023/10/09 11:59:18;;;;;;;11.13;5.38;;;;;;;16.31;72.17;97895.56;10423151;28;20057;-74
2023/10/09 12:04:43;;;;;;;6.45;4.15;;;;;;;16.68;71.89;97885.25;10421968;28;20060;-75
2023/10/09 12:10:10;;;;;;;10.77;4.95;;;;;;;16.93;71.85;97884.28;10447043;28;20075;-72
2023/10/09 12:15:37;;;;;;;11.05;5.05;;;;;;;16.81;71.79;97870.38;10445929;28;20041;-74
2023/10/09 12:21:03;;;;;;;9.48;4.70;;;;;;;16.64;72.38;97877.34;10434321;28;20494;-74
2023/10/09 12:26:24;;;;;;;13.60;4.80;;;;;;;16.45;72.66;97880.69;10440801;28;20433;-71
2023/10/09 12:31:45;;;;;;;9.68;4.55;;;;;;;16.36;73.54;97876.03;10472094;28;20041;-76
2023/10/09 12:37:06;;;;;;;9.05;4.80;;;;;;;16.21;73.50;97888.69;10434381;28;20094;-76
2023/10/09 12:42:28;;;;;;;9.05;4.68;;;;;;;16.04;74.24;97873.13;10446800;28;20045;-73
2023/10/09 12:48:08;;;;;;;10.52;4.32;;;;;;;15.96;75.04;97872.72;10445748;28;20056;-83
2023/10/09 12:53:29;;;;;;;9.25;4.20;;;;;;;15.96;75.32;97867.09;10459213;28;20055;-79
2023/10/09 12:58:52;;;;;;;8.73;4.13;;;;;;;15.93;75.60;97848.66;10462915;28;20040;-82
2023/10/09 13:04:31;;;;;;;9.95;4.35;;;;;;;15.86;75.76;97842.00;10374872;23;20057;-83
2023/10/09 13:10:08;;;;;;;8.35;4.15;;;;;;;15.71;76.25;97842.66;10342546;28;20296;-83
2023/10/09 13:15:42;;;;;;;9.32;4.40;;;;;;;15.57;77.31;97850.38;10356185;28;20034;-78
2023/10/09 13:21:03;;;;;;;9.80;4.25;;;;;;;15.39;78.17;97842.50;10851681;22;20058;-79
2023/10/09 13:26:32;;;;;;;10.85;4.38;;;;;;;15.32;79.22;97832.28;10569359;23;20489;-79
2023/10/09 13:32:02;;;;;;;13.13;4.70;;;;;;;15.24;79.66;97843.13;10618849;23;20058;-79
2023/10/09 13:37:23;;;;;;;10.32;5.22;;;;;;;15.22;80.76;97851.47;11276368;23;20029;-80
2023/10/09 13:42:44;;;;;;;11.00;4.75;;;;;;;15.20;81.29;97845.00;10359760;28;20101;-80
2023/10/09 13:48:11;;;;;;;9.13;4.00;;;;;;;15.16;81.29;97849.06;10491830;23;20089;-79
2023/10/09 13:53:32;;;;;;;12.43;5.13;;;;;;;15.31;81.90;97850.50;11068594;23;20038;-80
2023/10/09 13:58:54;;;;;;;8.52;4.50;;;;;;;15.37;81.51;97864.16;10371387;28;20049;-79
2023/10/09 14:04:40;;;;;;;10.87;5.10;;;;;;;15.21;82.41;97868.97;10437259;23;20030;31
2023/10/09 14:10:07;;;;;;;9.05;4.45;;;;;;;15.01;83.04;97875.00;10253647;29;20104;-72
2023/10/09 14:15:29;;;;;;;9.27;4.30;;;;;;;14.98;83.63;97878.31;10254618;29;20075;-72
2023/10/09 14:20:52;;;;;;;10.82;5.05;;;;;;;14.94;83.42;97886.53;10241125;29;20044;-72
2023/10/09 14:26:13;;;;;;;10.17;4.53;;;;;;;14.90;83.90;97878.63;10243503;28;20046;-72
2023/10/09 14:31:38;;;;;;;10.70;4.65;;;;;;;14.95;84.22;97868.31;10268095;28;20466;-72
2023/10/09 14:37:00;;;;;;;11.35;4.70;;;;;;;15.02;84.12;97873.63;10226805;28;20075;-72
2023/10/09 14:42:24;;;;;;;10.35;4.63;;;;;;;15.03;84.32;97875.09;10238231;28;20067;-71
2023/10/09 14:47:47;;;;;;;9.73;4.30;;;;;;;15.01;84.27;97863.75;10226748;29;20528;-72
2023/10/09 14:53:09;;;;;;;11.75;4.95;;;;;;;15.04;84.89;97859.69;10224976;29;20051;-72
2023/10/09 14:58:32;;;;;;;12.15;4.43;;;;;;;15.07;84.46;97847.19;10235016;29;20047;-72
2023/10/09 15:03:57;;;;;;;8.88;3.90;;;;;;;15.15;84.39;97853.25;10233695;29;20040;-69
2023/10/09 15:09:28;;;;;;;11.65;4.20;;;;;;;15.12;84.69;97854.47;10234743;29;20407;-69
2023/10/09 15:14:53;;;;;;;10.93;4.82;;;;;;;15.14;84.70;97871.44;10245190;29;20070;-71
2023/10/09 15:20:14;;;;;;;8.85;4.28;;;;;;;15.16;84.90;97871.56;10241170;29;20051;-71
2023/10/09 15:25:39;;;;;;;7.45;4.43;;;;;;;15.10;84.63;97878.94;10233049;29;20043;-71
2023/10/09 15:31:00;;;;;;;8.52;4.38;;;;;;;15.02;84.85;97884.88;10233900;29;20044;-71
2023/10/09 15:36:22;;;;;;;10.43;4.53;;;;;;;14.94;85.33;97894.97;10234231;29;20118;-71
2023/10/09 15:41:43;;;;;;;12.23;4.53;;;;;;;14.91;85.31;97901.84;10252134;29;20074;-71
2023/10/09 15:47:08;;;;;;;9.98;4.40;;;;;;;14.82;85.83;97909.84;10253705;28;20067;-71
2023/10/09 15:52:29;;;;;;;9.68;4.55;;;;;;;14.82;86.21;97914.72;10260077;28;20054;-71
2023/10/09 15:57:54;;;;;;;8.95;4.53;;;;;;;14.82;86.17;97917.53;10278165;28;20040;-77
2023/10/09 16:03:15;;;;;;;11.15;4.93;;;;;;;14.74;87.13;97911.47;10233948;29;20069;-77
2023/10/09 16:08:38;;;;;;;9.57;5.05;;;;;;;14.68;86.92;97900.66;10232399;29;20517;-71
2023/10/09 16:13:59;;;;;;;10.68;5.60;;;;;;;14.59;87.26;97907.19;10259957;29;20078;-71
2023/10/09 16:19:20;;;;;;;8.75;4.93;;;;;;;14.56;87.33;97909.13;10259449;29;20065;-71
2023/10/09 16:24:41;;;;;;;11.05;5.00;;;;;;;14.55;88.06;97918.91;10258095;29;20493;-71
2023/10/09 16:30:05;;;;;;;9.57;4.45;;;;;;;14.55;88.38;97930.16;10244721;29;20043;-73
2023/10/09 16:35:26;;;;;;;9.10;4.60;;;;;;;14.54;88.30;97945.53;10244862;29;20552;-75
2023/10/09 16:40:53;;;;;;;10.02;4.97;;;;;;;14.51;88.41;97924.31;10257949;29;20098;-74
2023/10/09 16:46:16;;;;;;;9.13;4.28;;;;;;;14.51;88.52;97929.94;10262045;29;20051;-73
2023/10/09 16:51:37;;;;;;;9.73;4.53;;;;;;;14.49;88.30;97932.63;10257169;29;20062;-71
2023/10/09 16:57:00;;;;;;;11.15;4.70;;;;;;;14.47;88.29;97940.19;10321334;23;20058;-71
2023/10/09 17:02:22;;;;;;;10.47;4.43;;;;;;;14.44;88.37;97942.16;10359455;28;20121;-76
2023/10/09 17:07:44;;;;;;;9.35;4.25;;;;;;;14.41;88.56;97953.91;10297882;28;20092;-71
2023/10/09 17:13:07;;;;;;;7.55;4.38;;;;;;;14.43;88.87;97965.97;10309808;28;20053;-72
2023/10/09 17:18:28;;;;;;;9.87;4.77;;;;;;;14.43;89.36;97962.44;10323257;28;20405;-72
2023/10/09 17:23:50;;;;;;;9.02;3.97;;;;;;;14.45;88.91;97971.00;10331527;28;20473;-71
2023/10/09 17:29:12;;;;;;;8.63;4.28;;;;;;;14.47;88.91;97969.00;10314024;28;20053;-71
2023/10/09 17:34:33;;;;;;;13.25;5.60;;;;;;;14.47;89.23;97968.28;10349186;28;20485;-72
2023/10/09 17:39:54;;;;;;;12.60;5.28;;;;;;;14.45;89.23;97973.78;10357568;28;20050;-79
2023/10/09 17:45:21;;;;;;;10.13;4.85;;;;;;;14.46;89.88;97990.03;10368357;28;20069;-73
2023/10/09 17:50:46;;;;;;;8.73;4.30;;;;;;;14.47;89.77;97987.94;10375779;28;20042;-71
2023/10/09 17:56:10;;;;;;;8.73;4.35;;;;;;;14.52;89.56;97981.94;10363170;28;20058;-74
2023/10/09 18:01:32;;;;;;;;;;;;;;;14.53;89.59;97989.03;10356220;28;20046;-79
2023/10/09 18:07:13;;;;;;;10.93;5.22;;;;;;;14.50;89.48;97978.31;10263164;28;19923;-78
2023/10/09 18:12:34;;;;;;;9.80;4.97;;;;;;;14.48;89.48;97964.88;10288417;28;20047;-77
2023/10/09 18:17:56;;;;;;;12.45;5.10;;;;;;;14.49;88.82;97976.84;10279224;28;20477;-71
2023/10/09 18:23:18;;;;;;;12.23;5.28;;;;;;;14.45;89.35;97982.22;10267879;28;20091;-71
2023/10/09 18:28:44;;;;;;;12.95;5.75;;;;;;;14.43;89.04;97988.44;10256835;29;20054;-69
2023/10/09 18:34:09;;;;;;;13.77;5.22;;;;;;;14.41;89.05;97993.22;10253861;29;20486;-70
2023/10/09 18:39:30;;;;;;;11.95;3.72;;;;;;;14.40;89.63;97992.47;10256811;29;20106;-75
2023/10/09 18:44:52;;;;;;;8.68;3.90;;;;;;;14.43;89.67;97991.25;10273595;28;20050;-71
2023/10/09 18:50:16;;;;;;;7.90;3.85;;;;;;;14.45;89.01;98001.88;10254477;29;20378;-71
2023/10/09 18:55:37;;;;;;;9.57;4.03;;;;;;;14.49;89.45;98007.75;10265619;28;20074;-70
2023/10/09 19:01:06;;;;;;;11.05;4.07;;;;;;;14.49;90.07;98000.03;10253885;29;20079;-72
2023/10/09 19:06:28;;;;;;;11.18;4.97;;;;;;;14.48;89.61;97995.78;10288396;28;20161;-71
2023/10/09 19:11:50;;;;;;;11.23;4.22;;;;;;;14.42;89.59;98001.00;10304257;28;20438;-74
2023/10/09 19:17:11;;;;;;;11.65;4.20;;;;;;;14.39;89.37;98010.69;10277238;28;20063;-70
2023/10/09 19:22:32;;;;;;;10.93;4.38;;;;;;;14.37;89.88;98010.53;10280114;28;20126;-69
2023/10/09 19:27:57;;;;;;;10.07;4.90;;;;;;;14.40;89.85;98014.94;10311099;28;20046;-69
2023/10/09 19:33:18;;;;;;;8.18;4.32;;;;;;;14.43;89.68;98008.09;10334239;28;20047;-71
2023/10/09 19:38:39;;;;;;;12.82;5.20;;;;;;;14.38;89.34;98005.66;10299750;28;20097;-71
2023/10/09 19:44:00;;;;;;;10.23;4.68;;;;;;;14.25;88.99;98018.28;10286244;28;20074;-71
2023/10/09 19:49:22;;;;;;;9.13;4.90;;;;;;;14.24;89.49;98020.34;10300383;28;20086;-71
2023/10/09 19:54:43;;;;;;;11.52;4.30;;;;;;;14.23;89.35;98018.16;10299664;28;20113;-71
2023/10/09 20:00:14;;;;;;;9.00;3.88;;;;;;;14.15;89.40;98018.44;10297604;28;20115;-71
2023/10/09 20:05:39;;;;;;;9.32;5.25;;;;;;;14.09;89.41;98025.75;10290118;28;20066;-70
2023/10/09 20:11:06;;;;;;;9.02;4.55;;;;;;;14.01;89.69;98028.84;10290725;28;20058;-71
2023/10/09 20:16:28;;;;;;;9.00;4.32;;;;;;;14.01;89.19;98034.47;10283700;28;20049;-71
2023/10/09 20:21:49;;;;;;;8.60;4.70;;;;;;;14.11;89.68;98045.53;10283817;28;20042;-71
2023/10/09 20:27:12;;;;;;;11.82;4.30;;;;;;;14.17;89.98;98037.47;10290849;28;20047;-70
2023/10/09 20:32:33;;;;;;;8.93;4.53;;;;;;;14.12;90.00;98039.31;10297850;28;20409;-70
2023/10/09 20:38:03;;;;;;;8.55;4.38;;;;;;;14.17;89.93;98054.31;10283110;28;20070;-70
2023/10/09 20:43:27;;;;;;;7.88;4.47;;;;;;;14.21;90.03;98044.06;10284032;28;20043;-70
2023/10/09 20:48:48;;;;;;;7.93;4.05;;;;;;;14.29;89.69;98061.38;10283979;28;20046;-71
2023/10/09 20:54:09;;;;;;;11.05;4.47;;;;;;;14.24;89.83;98056.13;10283461;28;20066;-71
2023/10/09 20:59:36;;;;;;;10.13;4.82;;;;;;;14.33;90.04;98072.09;10288839;28;20069;-71
2023/10/09 21:04:58;;;;;;;9.25;4.45;;;;;;;14.32;89.67;98067.84;10297593;28;20561;-71
2023/10/09 21:10:23;;;;;;;7.53;3.97;;;;;;;14.26;89.55;98065.38;10296211;28;20051;-70
2023/10/09 21:15:45;;;;;;;8.95;4.47;;;;;;;14.18;89.61;98050.16;10282450;28;20073;-70
2023/10/09 21:21:09;;;;;;;10.00;4.50;;;;;;;13.96;89.61;98058.00;10282474;28;20066;-70
2023/10/09 21:26:30;;;;;;;10.02;5.13;;;;;;;13.74;90.32;98058.13;10282352;28;20039;-71
2023/10/09 21:31:52;;;;;;;8.75;4.32;;;;;;;13.62;90.24;98054.59;10282034;28;20066;-71
2023/10/09 21:37:13;;;;;;;8.60;4.63;;;;;;;13.46;90.45;98071.16;10295347;28;20503;-71
2023/10/09 21:42:34;;;;;;;10.68;4.82;;;;;;;13.36;90.70;98056.53;10258187;28;20053;-70
2023/10/09 21:47:55;;;;;;;8.68;4.10;;;;;;;13.27;91.03;98060.19;10281202;28;20050;-70
2023/10/09 21:53:17;;;;;;;9.88;4.88;;;;;;;13.20;91.17;98075.16;10294767;28;20099;-68
2023/10/09 21:58:38;;;;;;;9.50;5.20;;;;;;;13.14;91.65;98074.75;10293955;28;20470;-70
2023/10/09 22:03:59;;;;;;;9.20;5.13;;;;;;;13.09;92.00;98064.63;10294274;28;20516;-71
2023/10/09 22:09:19;;;;;;;14.10;4.85;;;;;;;13.05;91.83;98064.38;10293841;28;20077;-71
2023/10/09 22:14:41;;;;;;;12.18;5.47;;;;;;;13.02;91.73;98062.75;10294029;28;20066;-70
2023/10/09 22:20:04;;;;;;;12.77;5.30;;;;;;;13.01;91.86;98062.03;10294034;28;20054;-71
2023/10/09 22:25:25;;;;;;;;;;;;;;;13.03;91.91;98058.66;10281045;28;20401;-71
2023/10/09 22:30:46;;;;;;;11.50;5.63;;;;;;;13.02;91.99;98045.94;10293018;28;20384;-70
2023/10/09 22:36:10;;;;;;;11.45;5.00;;;;;;;13.01;91.58;98053.63;10280010;28;20070;-71
2023/10/09 22:41:31;;;;;;;10.25;4.72;;;;;;;13.02;91.98;98059.97;10293456;28;20113;-71
2023/10/09 22:46:55;;;;;;;11.75;4.78;;;;;;;13.02;91.99;98055.09;10292993;28;20101;-71
2023/10/09 22:52:23;;;;;;;12.45;4.80;;;;;;;13.00;92.03;98057.03;10293964;28;20054;-70
2023/10/09 22:57:44;;;;;;;9.70;4.82;;;;;;;12.99;92.42;98063.97;10279384;28;20081;-68
2023/10/09 23:03:25;;;;;;;8.60;4.40;;;;;;;13.00;92.41;98063.38;10292466;28;20082;-70
2023/10/09 23:08:54;;;;;;;9.27;4.55;;;;;;;13.12;92.63;98066.19;10282042;28;20110;-70
2023/10/09 23:14:15;;;;;;;13.05;4.70;;;;;;;13.30;92.05;98070.16;10292660;28;20111;-70
2023/10/09 23:25:08;;;;;;;11.07;4.95;;;;;;;13.55;91.53;98074.47;10279191;28;20082;-71
2023/10/09 23:30:29;;;;;;;13.68;4.90;;;;;;;13.66;91.46;98087.78;10292313;28;20050;-71
2023/10/09 23:35:50;;;;;;;10.65;4.60;;;;;;;13.72;91.59;98091.69;10278646;28;20049;-70
2023/10/09 23:41:12;;;;;;;10.43;4.60;;;;;;;13.78;91.21;98091.31;10279004;28;20117;-71
2023/10/09 23:46:36;;;;;;;9.38;4.63;;;;;;;13.83;91.16;98090.22;10292428;28;20122;-71
2023/10/09 23:51:59;;;;;;;;;;;;;;;13.75;90.82;98082.03;10278793;28;20047;-71
2023/10/09 23:57:20;;;;;;;11.37;4.33;;;;;;;13.64;91.08;98093.25;10291689;28;19988;-70
